createdAt,value
2022-09-12T00:02:25.853Z,6.10
2022-09-12T00:04:52.975Z,5.80
2022-09-12T00:07:20.226Z,5.60
2022-09-12T00:09:47.590Z,5.88
2022-09-12T00:12:14.681Z,5.80
2022-09-12T00:14:41.804Z,5.43
2022-09-12T00:17:08.907Z,5.53
2022-09-12T00:19:36.020Z,5.00
2022-09-12T00:22:03.182Z,5.03
2022-09-12T00:24:30.349Z,5.15
2022-09-12T00:26:57.442Z,5.15
2022-09-12T00:29:24.630Z,5.32
2022-09-12T00:31:51.777Z,5.55
2022-09-12T00:34:18.914Z,5.43
2022-09-12T00:36:46.062Z,5.00
2022-09-12T00:39:15.453Z,5.55
2022-09-12T00:41:42.659Z,5.20
2022-09-12T00:44:12.629Z,5.68
2022-09-12T00:46:41.810Z,5.25
2022-09-12T00:49:14.972Z,5.13
2022-09-12T00:51:43.700Z,5.40
2022-09-12T00:54:11.840Z,5.57
2022-09-12T00:56:39.298Z,6.13
2022-09-12T00:59:08.452Z,6.28
2022-09-12T01:01:35.654Z,5.80
2022-09-12T01:04:02.942Z,6.50
2022-09-12T01:06:31.282Z,5.93
2022-09-12T01:08:59.244Z,6.22
2022-09-12T01:11:26.371Z,6.38
2022-09-12T01:13:53.458Z,6.30
2022-09-12T01:16:20.628Z,6.43
2022-09-12T01:18:53.830Z,6.45
2022-09-12T01:21:22.621Z,5.80
2022-09-12T01:23:52.781Z,6.93
2022-09-12T01:26:38.474Z,6.28
2022-09-12T01:29:24.352Z,6.78
2022-09-12T01:31:57.866Z,5.90
2022-09-12T01:34:28.077Z,6.22
2022-09-12T01:36:58.479Z,6.05
2022-09-12T01:39:25.567Z,5.80
2022-09-12T01:42:11.663Z,6.63
2022-09-12T01:44:44.842Z,6.22
2022-09-12T01:47:11.977Z,7.40
2022-09-12T01:49:41.243Z,7.68
2022-09-12T01:52:19.044Z,8.30
2022-09-12T01:54:48.079Z,6.93
2022-09-12T01:57:17.875Z,6.97
2022-09-12T01:59:46.035Z,7.53
2022-09-12T02:02:22.960Z,7.55
2022-09-12T02:04:52.200Z,7.15
2022-09-12T02:07:20.873Z,6.50
2022-09-12T02:09:49.646Z,5.88
2022-09-12T02:12:17.513Z,6.25
2022-09-12T02:14:46.897Z,6.07
2022-09-12T02:17:14.483Z,6.43
2022-09-12T02:19:42.600Z,6.15
2022-09-12T02:22:09.716Z,5.60
2022-09-12T02:24:40.896Z,6.57
2022-09-12T02:27:12.105Z,7.22
2022-09-12T02:29:39.201Z,7.40
2022-09-12T02:32:06.843Z,8.75
2022-09-12T02:34:40.044Z,9.77
2022-09-12T02:37:15.424Z,8.45
2022-09-12T02:39:45.287Z,9.00
2022-09-12T02:42:12.710Z,9.10
2022-09-12T02:44:39.837Z,9.07
2022-09-12T02:47:10.633Z,9.38
2022-09-12T02:49:37.764Z,9.30
2022-09-12T02:52:04.915Z,8.98
2022-09-12T02:54:32.090Z,8.98
2022-09-12T02:56:59.202Z,8.95
2022-09-12T02:59:26.404Z,7.97
2022-09-12T03:01:59.762Z,8.23
2022-09-12T03:04:45.878Z,8.30
2022-09-12T03:07:22.187Z,8.00
2022-09-12T03:10:04.850Z,8.23
2022-09-12T03:12:36.026Z,8.15
2022-09-12T03:15:21.914Z,8.32
2022-09-12T03:17:53.483Z,8.30
2022-09-12T03:20:42.534Z,6.53
2022-09-12T03:23:17.194Z,7.20
2022-09-12T03:25:45.150Z,7.10
2022-09-12T03:28:12.771Z,11.27
2022-09-12T03:30:41.093Z,12.88
2022-09-12T03:33:11.027Z,10.98
2022-09-12T03:35:38.266Z,10.45
2022-09-12T03:38:07.987Z,9.88
2022-09-12T03:40:35.622Z,7.47
2022-09-12T03:43:02.883Z,8.35
2022-09-12T03:45:30.062Z,7.72
2022-09-12T03:47:57.256Z,8.10
2022-09-12T03:50:24.414Z,8.65
2022-09-12T03:52:51.531Z,7.57
2022-09-12T03:55:18.631Z,8.20
2022-09-12T03:57:45.879Z,8.05
2022-09-12T04:00:17.672Z,7.97
2022-09-12T04:02:46.753Z,7.68
2022-09-12T04:05:13.934Z,8.07
2022-09-12T04:07:41.069Z,7.40
2022-09-12T04:10:09.625Z,7.32
2022-09-12T04:12:37.314Z,10.07
2022-09-12T04:15:05.149Z,9.50
2022-09-12T04:17:32.243Z,10.30
2022-09-12T04:19:59.380Z,10.60
2022-09-12T04:22:26.543Z,9.55
2022-09-12T04:24:53.686Z,9.15
2022-09-12T04:27:20.800Z,8.93
2022-09-12T04:29:47.908Z,8.20
2022-09-12T04:32:15.133Z,9.75
2022-09-12T04:34:42.251Z,8.63
2022-09-12T04:37:11.649Z,8.45
2022-09-12T04:39:38.848Z,8.55
2022-09-12T04:42:06.104Z,7.72
2022-09-12T04:44:33.194Z,8.25
2022-09-12T04:47:00.424Z,7.72
2022-09-12T04:49:27.710Z,7.07
2022-09-12T04:51:57.839Z,7.15
2022-09-12T04:54:24.922Z,7.28
2022-09-12T04:56:52.560Z,6.60
2022-09-12T04:59:20.152Z,7.47
2022-09-12T05:01:47.267Z,7.65
2022-09-12T05:04:14.684Z,8.02
2022-09-12T05:06:41.995Z,8.98
2022-09-12T05:09:11.234Z,7.65
2022-09-12T05:12:03.165Z,6.60
2022-09-12T05:14:26.052Z,6.95
2022-09-12T05:16:53.205Z,5.47
2022-09-12T05:19:20.403Z,5.60
2022-09-12T05:21:47.519Z,5.20
2022-09-12T05:24:14.703Z,5.00
2022-09-12T05:26:41.816Z,4.30
2022-09-12T05:29:08.951Z,4.80
2022-09-12T05:31:36.375Z,4.30
2022-09-12T05:34:09.097Z,4.32
2022-09-12T05:36:37.094Z,3.60
2022-09-12T05:39:04.633Z,3.60
2022-09-12T05:41:32.916Z,4.00
2022-09-12T05:44:03.846Z,3.60
2022-09-12T05:46:31.654Z,4.40
2022-09-12T05:49:04.662Z,3.58
2022-09-12T05:51:33.238Z,3.75
2022-09-12T05:54:01.130Z,3.50
2022-09-12T05:56:28.904Z,3.70
2022-09-12T05:58:56.075Z,3.45
2022-09-12T06:01:23.230Z,4.20
2022-09-12T06:03:54.413Z,3.38
2022-09-12T06:06:22.081Z,3.25
2022-09-12T06:08:50.011Z,4.03
2022-09-12T06:11:18.319Z,3.85
2022-09-12T06:13:45.444Z,3.80
2022-09-12T06:16:13.583Z,3.47
2022-09-12T06:18:41.587Z,4.13
2022-09-12T06:21:09.518Z,3.83
2022-09-12T06:23:36.811Z,3.65
2022-09-12T06:26:04.353Z,3.53
2022-09-12T06:28:32.084Z,3.40
2022-09-12T06:31:18.608Z,3.38
2022-09-12T06:33:46.827Z,3.40
2022-09-12T06:36:16.111Z,3.22
2022-09-12T06:38:43.838Z,2.90
2022-09-12T06:41:12.497Z,3.20
2022-09-12T06:43:39.974Z,3.00
2022-09-12T06:46:07.656Z,2.65
2022-09-12T06:48:38.332Z,2.78
2022-09-12T06:51:10.144Z,3.05
2022-09-12T06:53:37.378Z,2.80
2022-09-12T06:56:06.742Z,2.63
2022-09-12T06:58:34.052Z,3.38
2022-09-12T07:01:04.858Z,3.55
2022-09-12T07:03:32.138Z,3.72
2022-09-12T07:06:02.847Z,3.40
2022-09-12T07:08:31.305Z,3.67
2022-09-12T07:10:59.313Z,3.47
2022-09-12T07:13:26.483Z,3.88
2022-09-12T07:15:53.571Z,3.38
2022-09-12T07:18:21.030Z,5.50
2022-09-12T07:23:33.086Z,3.70
2022-09-12T07:26:00.594Z,27.85
2022-09-12T07:28:28.212Z,3.35
2022-09-12T07:30:55.875Z,3.80
2022-09-12T07:33:24.671Z,3.40
2022-09-12T07:35:53.422Z,2.92
2022-09-12T07:38:23.467Z,3.00
2022-09-12T07:40:51.073Z,5.00
2022-09-12T07:43:18.175Z,3.72
2022-09-12T07:45:45.320Z,2.70
2022-09-12T07:48:12.494Z,2.50
2022-09-12T07:50:43.219Z,2.25
2022-09-12T07:53:12.978Z,2.40
2022-09-12T07:55:40.075Z,2.17
2022-09-12T07:58:07.191Z,2.33
2022-09-12T08:00:36.420Z,2.67
2022-09-12T08:03:03.835Z,2.40
2022-09-12T08:05:31.006Z,2.42
2022-09-12T08:07:58.131Z,3.20
2022-09-12T08:10:25.248Z,3.13
2022-09-12T08:12:52.355Z,2.60
2022-09-12T08:15:20.302Z,3.00
2022-09-12T08:17:47.459Z,2.95
2022-09-12T08:20:14.715Z,2.75
2022-09-12T08:22:42.376Z,2.75
2022-09-12T08:25:09.728Z,2.67
2022-09-12T08:27:37.506Z,3.95
2022-09-12T08:30:06.167Z,3.00
2022-09-12T08:32:35.031Z,2.90
2022-09-12T08:35:02.189Z,2.65
2022-09-12T08:37:32.350Z,3.05
2022-09-12T08:39:59.524Z,4.15
2022-09-12T08:42:31.873Z,2.60
2022-09-12T08:45:15.189Z,2.30
2022-09-12T08:47:42.719Z,2.88
2022-09-12T08:50:09.870Z,3.15
2022-09-12T08:52:42.826Z,3.03
2022-09-12T08:55:28.703Z,3.33
2022-09-12T08:57:55.874Z,2.88
2022-09-12T09:00:23.091Z,2.70
2022-09-12T09:02:56.421Z,2.80
2022-09-12T09:05:25.466Z,2.55
2022-09-12T09:07:52.565Z,2.35
2022-09-12T09:10:31.770Z,2.35
2022-09-12T09:12:58.915Z,2.58
2022-09-12T09:15:44.855Z,2.50
2022-09-12T09:18:14.545Z,2.80
2022-09-12T09:20:54.939Z,2.95
2022-09-12T09:23:22.096Z,2.40
2022-09-12T09:26:07.970Z,2.28
2022-09-12T09:28:51.663Z,2.30
2022-09-12T09:31:19.688Z,2.20
2022-09-12T09:33:51.016Z,2.60
2022-09-12T09:36:18.611Z,2.75
2022-09-12T09:39:18.234Z,2.90
2022-09-12T09:41:52.674Z,2.72
2022-09-12T09:44:19.783Z,2.35
2022-09-12T09:46:47.332Z,3.28
2022-09-12T09:49:15.566Z,2.72
2022-09-12T09:51:43.125Z,3.22
2022-09-12T09:54:16.276Z,2.50
2022-09-12T09:56:43.918Z,2.10
2022-09-12T09:59:11.994Z,2.22
2022-09-12T10:01:55.447Z,1.73
2022-09-12T10:04:23.863Z,2.13
2022-09-12T10:06:57.642Z,2.33
2022-09-12T10:09:34.371Z,2.00
2022-09-12T10:12:02.332Z,1.77
2022-09-12T10:14:35.115Z,1.52
2022-09-12T10:17:03.438Z,1.75
2022-09-12T10:19:37.622Z,1.73
2022-09-12T10:22:05.371Z,3.67
2022-09-12T10:24:36.624Z,2.80
2022-09-12T10:27:12.971Z,2.25
2022-09-12T10:29:48.378Z,2.03
2022-09-12T10:32:31.026Z,2.50
2022-09-12T10:35:02.414Z,1.88
2022-09-12T10:37:33.846Z,2.33
2022-09-12T10:40:01.470Z,1.75
2022-09-12T10:43:04.288Z,2.30
2022-09-12T10:45:38.732Z,1.85
2022-09-12T10:48:22.840Z,1.70
2022-09-12T10:50:49.939Z,1.70
2022-09-12T10:53:21.070Z,1.65
2022-09-12T10:56:06.921Z,1.98
2022-09-12T10:58:37.037Z,1.80
2022-09-12T11:01:09.908Z,1.77
2022-09-12T11:03:49.288Z,1.55
2022-09-12T11:06:16.610Z,1.75
2022-09-12T11:09:02.260Z,1.80
2022-09-12T11:11:37.337Z,1.90
2022-09-12T11:14:22.860Z,1.42
2022-09-12T11:16:52.315Z,1.65
2022-09-12T11:19:28.754Z,2.00
2022-09-12T11:21:59.026Z,1.70
2022-09-12T11:24:32.047Z,1.70
2022-09-12T11:26:59.157Z,1.85
2022-09-12T11:29:45.781Z,1.63
2022-09-12T11:32:12.964Z,13.90
2022-09-12T11:34:44.355Z,1.90
2022-09-12T11:37:17.916Z,2.17
2022-09-12T11:39:45.441Z,1.90
2022-09-12T11:42:31.703Z,1.80
2022-09-12T11:45:10.348Z,2.00
2022-09-12T11:47:37.498Z,1.70
2022-09-12T11:50:05.506Z,1.50
2022-09-12T11:52:34.745Z,1.63
2022-09-12T11:55:01.886Z,1.90
2022-09-12T11:57:28.970Z,1.52
2022-09-12T12:00:00.343Z,1.88
2022-09-12T12:02:28.282Z,1.60
2022-09-12T12:05:04.468Z,1.33
2022-09-12T12:07:32.787Z,2.08
2022-09-12T12:09:59.983Z,19.58
2022-09-12T12:12:27.513Z,2.80
2022-09-12T12:14:55.130Z,2.05
2022-09-12T12:17:23.124Z,2.30
2022-09-12T12:20:08.148Z,1.50
2022-09-12T12:22:36.411Z,1.60
2022-09-12T12:25:03.641Z,1.70
2022-09-12T12:27:49.958Z,1.85
2022-09-12T12:30:29.975Z,2.00
2022-09-12T12:33:01.114Z,1.80
2022-09-12T12:35:38.707Z,1.50
2022-09-12T12:38:06.874Z,1.73
2022-09-12T12:40:34.188Z,1.80
2022-09-12T12:43:02.581Z,1.48
2022-09-12T12:45:29.701Z,1.45
2022-09-12T12:48:17.269Z,1.48
2022-09-12T12:50:44.551Z,1.63
2022-09-12T12:53:23.055Z,1.58
2022-09-12T12:55:51.135Z,1.25
2022-09-12T12:58:27.070Z,1.52
2022-09-12T13:01:13.018Z,1.33
2022-09-12T13:03:41.924Z,1.52
2022-09-12T13:06:09.251Z,1.58
2022-09-12T13:08:40.084Z,12.18
2022-09-12T13:11:12.463Z,2.78
2022-09-12T13:13:41.613Z,1.60
2022-09-12T13:16:10.469Z,1.50
2022-09-12T13:18:44.364Z,1.52
2022-09-12T13:21:18.283Z,1.67
2022-09-12T13:23:45.625Z,1.80
2022-09-12T13:26:14.025Z,1.80
2022-09-12T13:28:41.123Z,1.42
2022-09-12T13:31:12.106Z,1.10
2022-09-12T13:33:42.351Z,2.08
2022-09-12T13:36:19.013Z,1.40
2022-09-12T13:38:48.960Z,1.60
2022-09-12T13:41:24.908Z,1.60
2022-09-12T13:43:52.012Z,1.55
2022-09-12T13:46:21.742Z,1.48
2022-09-12T13:48:48.983Z,1.85
2022-09-12T13:51:24.384Z,2.05
2022-09-12T13:53:51.529Z,1.98
2022-09-12T13:56:18.759Z,1.88
2022-09-12T13:58:59.115Z,1.60
2022-09-12T14:01:36.806Z,1.67
2022-09-12T14:04:27.392Z,1.50
2022-09-12T14:06:54.514Z,1.50
2022-09-12T14:09:26.038Z,1.27
2022-09-12T14:11:53.722Z,1.45
2022-09-12T14:14:27.755Z,1.50
2022-09-12T14:16:54.979Z,1.75
2022-09-12T14:19:24.803Z,1.48
2022-09-12T14:21:52.210Z,1.50
2022-09-12T14:24:23.325Z,1.38
2022-09-12T14:26:52.003Z,1.50
2022-09-12T14:29:19.162Z,1.50
2022-09-12T14:31:46.291Z,1.30
2022-09-12T14:34:13.456Z,1.73
2022-09-12T14:36:41.626Z,1.42
2022-09-12T14:39:16.684Z,1.40
2022-09-12T14:41:43.883Z,1.50
2022-09-12T14:44:15.046Z,1.70
2022-09-12T14:46:42.440Z,1.40
2022-09-12T14:49:15.751Z,1.85
2022-09-12T14:51:51.804Z,2.17
2022-09-12T14:54:28.136Z,1.67
2022-09-12T14:56:58.964Z,1.52
2022-09-12T14:59:30.003Z,1.63
2022-09-12T15:02:15.907Z,1.52
2022-09-12T15:04:43.857Z,1.90
2022-09-12T15:07:22.592Z,1.83
2022-09-12T15:09:49.927Z,1.50
2022-09-12T15:12:17.024Z,1.70
2022-09-12T15:14:44.158Z,1.88
2022-09-12T15:17:11.261Z,1.90
2022-09-12T15:19:38.351Z,1.83
2022-09-12T15:22:05.517Z,1.70
2022-09-12T15:24:32.666Z,2.83
2022-09-12T15:26:59.792Z,3.22
2022-09-12T15:29:26.916Z,3.35
2022-09-12T15:31:54.038Z,2.65
2022-09-12T15:34:21.316Z,3.03
2022-09-12T15:36:48.440Z,2.90
2022-09-12T15:39:15.550Z,2.50
2022-09-12T15:41:42.745Z,2.80
2022-09-12T15:44:13.217Z,2.63
2022-09-12T15:46:40.514Z,2.80
2022-09-12T15:49:07.685Z,2.67
2022-09-12T15:51:34.802Z,2.70
2022-09-12T15:54:02.454Z,3.00
2022-09-12T15:56:29.550Z,3.00
2022-09-12T15:58:59.558Z,3.00
2022-09-12T16:01:27.302Z,3.17
2022-09-12T16:03:54.447Z,2.60
2022-09-12T16:06:22.234Z,2.83
2022-09-12T16:08:49.535Z,3.20
2022-09-12T16:11:23.597Z,2.95
2022-09-12T16:13:52.185Z,3.70
2022-09-12T16:16:19.339Z,5.20
2022-09-12T16:18:46.864Z,5.18
2022-09-12T16:21:15.506Z,5.63
2022-09-12T16:23:43.791Z,4.70
2022-09-12T16:26:10.922Z,4.07
2022-09-12T16:28:38.647Z,3.20
2022-09-12T16:31:06.888Z,3.45
2022-09-12T16:33:34.216Z,3.60
2022-09-12T16:36:02.475Z,4.40
2022-09-12T16:38:29.704Z,5.30
2022-09-12T16:41:03.365Z,5.50
2022-09-12T16:43:30.944Z,5.72
2022-09-12T16:46:05.587Z,5.63
2022-09-12T16:48:34.385Z,5.60
2022-09-12T16:51:02.430Z,4.63
2022-09-12T16:53:33.114Z,4.07
2022-09-12T16:56:00.202Z,4.95
2022-09-12T16:58:27.690Z,4.85
2022-09-12T17:01:08.195Z,5.05
2022-09-12T17:03:38.813Z,3.72
2022-09-12T17:06:10.228Z,4.28
2022-09-12T17:08:40.943Z,3.35
2022-09-12T17:11:09.038Z,3.70
2022-09-12T17:14:00.066Z,5.68
2022-09-12T17:16:23.742Z,6.35
2022-09-12T17:18:51.614Z,11.75
2022-09-12T17:21:18.974Z,21.88
2022-09-12T17:23:46.137Z,18.13
2022-09-12T17:26:13.398Z,17.30
2022-09-12T17:28:40.715Z,18.00
2022-09-12T17:31:09.047Z,23.63
2022-09-12T17:33:36.363Z,28.98
2022-09-12T17:36:14.907Z,24.63
2022-09-12T17:38:42.116Z,20.05
2022-09-12T17:41:17.644Z,14.98
2022-09-12T17:43:50.269Z,13.90
2022-09-12T17:46:20.504Z,12.98
2022-09-12T17:48:54.344Z,14.05
2022-09-12T17:51:22.177Z,10.93
2022-09-12T17:53:49.370Z,9.30
2022-09-12T17:56:16.494Z,7.35
2022-09-12T17:58:43.690Z,11.82
2022-09-12T18:01:30.482Z,8.57
2022-09-12T18:03:57.819Z,11.02
2022-09-12T18:06:24.954Z,7.90
2022-09-12T18:08:52.398Z,8.70
2022-09-12T18:11:19.535Z,6.90
2022-09-12T18:13:46.805Z,7.43
2022-09-12T18:16:14.509Z,4.70
2022-09-12T18:18:41.674Z,5.65
2022-09-12T18:21:09.100Z,6.65
2022-09-12T18:23:36.413Z,6.65
2022-09-12T18:26:04.701Z,6.38
2022-09-12T18:28:35.292Z,7.93
2022-09-12T18:31:02.486Z,8.00
2022-09-12T18:33:29.686Z,8.07
2022-09-12T18:35:56.826Z,7.30
2022-09-12T18:38:24.051Z,7.00
2022-09-12T18:40:51.159Z,9.10
2022-09-12T18:43:18.376Z,8.80
2022-09-12T18:45:45.511Z,7.38
2022-09-12T18:48:12.711Z,7.82
2022-09-12T18:50:39.898Z,7.72
2022-09-12T18:53:07.109Z,7.80
2022-09-12T18:55:34.321Z,8.05
2022-09-12T18:58:01.481Z,7.75
2022-09-12T19:00:28.632Z,7.60
2022-09-12T19:02:55.849Z,9.25
2022-09-12T19:05:22.955Z,12.57
2022-09-12T19:07:50.173Z,11.43
2022-09-12T19:10:17.281Z,12.82
2022-09-12T19:12:44.429Z,14.85
2022-09-12T19:15:11.712Z,13.40
2022-09-12T19:17:38.806Z,11.40
2022-09-12T19:20:06.155Z,6.10
2022-09-12T19:22:33.358Z,9.00
2022-09-12T19:25:00.539Z,10.40
2022-09-12T19:27:27.646Z,8.00
2022-09-12T19:29:54.881Z,9.02
2022-09-12T19:32:22.137Z,9.02
2022-09-12T19:34:49.350Z,7.70
2022-09-12T19:37:16.488Z,8.02
2022-09-12T19:39:45.272Z,8.50
2022-09-12T19:42:12.587Z,6.97
2022-09-12T19:44:39.790Z,7.25
2022-09-12T19:47:06.975Z,6.95
2022-09-12T19:49:34.181Z,6.28
2022-09-12T19:52:01.405Z,6.45
2022-09-12T19:54:28.521Z,6.70
2022-09-12T19:56:55.620Z,6.07
2022-09-12T19:59:22.739Z,6.60
2022-09-12T20:01:49.968Z,5.50
2022-09-12T20:04:17.153Z,5.70
2022-09-12T20:06:44.267Z,6.22
2022-09-12T20:09:11.404Z,6.55
2022-09-12T20:11:38.679Z,5.85
2022-09-12T20:14:05.889Z,6.40
2022-09-12T20:16:33.568Z,6.28
2022-09-12T20:19:01.861Z,6.13
2022-09-12T20:21:34.093Z,6.40
2022-09-12T20:24:21.513Z,6.70
2022-09-12T20:26:48.687Z,6.93
2022-09-12T20:29:15.838Z,6.18
2022-09-12T20:31:43.234Z,6.78
2022-09-12T20:34:14.979Z,14.38
2022-09-12T20:36:42.149Z,8.55
2022-09-12T20:39:12.623Z,9.70
2022-09-12T20:41:39.758Z,9.02
2022-09-12T20:44:06.858Z,10.57
2022-09-12T20:46:33.993Z,8.93
2022-09-12T20:49:01.155Z,8.68
2022-09-12T20:51:29.627Z,7.63
2022-09-12T20:54:00.492Z,9.02
2022-09-12T20:56:28.408Z,8.75
2022-09-12T20:58:55.872Z,8.65
2022-09-12T21:01:23.143Z,10.18
2022-09-12T21:03:50.383Z,11.90
2022-09-12T21:06:17.957Z,10.85
2022-09-12T21:08:45.557Z,11.70
2022-09-12T21:11:12.754Z,10.43
2022-09-12T21:13:39.945Z,10.27
2022-09-12T21:16:08.042Z,10.63
2022-09-12T21:18:35.341Z,9.63
2022-09-12T21:21:02.515Z,10.38
2022-09-12T21:23:29.867Z,10.15
2022-09-12T21:25:56.984Z,10.20
2022-09-12T21:28:24.198Z,10.30
2022-09-12T21:30:51.473Z,9.00
2022-09-12T21:33:19.146Z,8.80
2022-09-12T21:35:47.010Z,8.35
2022-09-12T21:38:15.052Z,8.70
2022-09-12T21:40:42.176Z,7.53
2022-09-12T21:43:12.581Z,6.93
2022-09-12T21:45:40.195Z,7.57
2022-09-12T21:48:07.816Z,7.20
2022-09-12T21:50:34.909Z,8.25
2022-09-12T21:53:02.050Z,9.82
2022-09-12T21:55:29.219Z,6.88
2022-09-12T21:57:56.315Z,6.78
2022-09-12T22:00:23.444Z,6.90
2022-09-12T22:02:50.545Z,6.65
2022-09-12T22:05:18.672Z,6.78
2022-09-12T22:07:45.770Z,7.15
2022-09-12T22:10:12.875Z,8.30
2022-09-12T22:12:43.998Z,8.60
2022-09-12T22:15:38.931Z,7.43
2022-09-12T22:18:00.113Z,6.90
2022-09-12T22:20:27.231Z,6.60
2022-09-12T22:23:12.940Z,6.80
2022-09-12T22:25:40.164Z,6.20
2022-09-12T22:28:07.236Z,6.03
2022-09-12T22:30:34.334Z,5.60
2022-09-12T22:33:01.447Z,4.53
2022-09-12T22:35:28.562Z,4.47
2022-09-12T22:37:55.739Z,4.78
2022-09-12T22:40:22.900Z,4.60
2022-09-12T22:42:52.282Z,4.95
2022-09-12T22:45:19.857Z,5.60
2022-09-12T22:47:47.154Z,5.22
2022-09-12T22:50:14.328Z,5.40
2022-09-12T22:52:41.641Z,6.00
2022-09-12T22:55:09.120Z,5.68
2022-09-12T22:57:36.205Z,5.95
2022-09-12T23:00:06.881Z,5.00
2022-09-12T23:02:34.898Z,5.53
2022-09-12T23:05:02.644Z,6.43
2022-09-12T23:07:29.737Z,6.82
2022-09-12T23:09:56.927Z,6.03
2022-09-12T23:12:24.040Z,6.97
2022-09-12T23:14:51.114Z,5.32
2022-09-12T23:17:18.190Z,5.80
2022-09-12T23:19:45.262Z,5.20
2022-09-12T23:22:12.327Z,5.65
2022-09-12T23:24:39.435Z,5.82
2022-09-12T23:27:06.520Z,5.50
2022-09-12T23:29:35.259Z,5.70
2022-09-12T23:32:03.007Z,5.50
2022-09-12T23:34:30.091Z,5.40
2022-09-12T23:36:57.314Z,5.40
2022-09-12T23:39:24.431Z,5.88
2022-09-12T23:41:52.028Z,7.55
2022-09-12T23:44:19.094Z,10.07
2022-09-12T23:46:46.196Z,13.00
2022-09-12T23:49:13.279Z,12.55
2022-09-12T23:51:40.360Z,10.60
2022-09-12T23:54:07.525Z,9.18
2022-09-12T23:56:34.669Z,9.40
2022-09-12T23:59:01.726Z,6.35
